Time;durP1;ratioP1;P1;durP2;ratioP2;P2;SDS_P1;SDS_P2;PMS_P1;PMS_P2;Temp;Humidity;BMP_temperature;BMP_pressure;BME280_temperature;BME280_humidity;BME280_pressure;Samples;Min_cycle;Max_cycle;Signal;HPM_P1;HPM_P2
2023/01/31 10:12:33;;;;;;;12.80;11.90;;;8.00;99.90;;;;;;5135109;27;20529;-85
2023/01/31 10:15:05;;;;;;;12.60;11.60;;;8.40;99.90;;;;;;5137565;27;20447;-85
2023/01/31 10:17:38;;;;;;;13.67;12.57;;;8.30;99.90;;;;;;5141822;27;20465;-86
2023/01/31 10:20:17;;;;;;;12.67;11.73;;;8.40;99.90;;;;;;5154059;27;20494;-84
2023/01/31 10:22:49;;;;;;;13.63;12.27;;;8.30;99.90;;;;;;5150190;27;20556;-85
2023/01/31 10:25:26;;;;;;;12.37;11.33;;;8.30;99.90;;;;;;5146599;28;20467;-86
2023/01/31 10:28:00;;;;;;;12.60;11.80;;;8.60;99.90;;;;;;5140734;27;20456;-86
2023/01/31 10:30:37;;;;;;;13.10;10.27;;;8.80;99.90;;;;;;5131699;27;20424;-86
2023/01/31 10:33:15;;;;;;;12.17;11.27;;;8.70;99.90;;;;;;5131822;27;20514;-86
2023/01/31 10:35:45;;;;;;;12.20;11.40;;;8.60;99.90;;;;;;5130982;27;20437;-85
2023/01/31 10:38:18;;;;;;;13.80;12.20;;;8.40;99.90;;;;;;5132171;27;20444;-85
2023/01/31 10:40:48;;;;;;;10.90;10.20;;;8.00;99.90;;;;;;5130889;27;20918;-85
2023/01/31 10:43:21;;;;;;;12.20;11.20;;;8.20;99.90;;;;;;5132118;27;20468;-85
2023/01/31 10:45:48;;;;;;;12.70;11.50;;;8.60;99.90;;;;;;5133572;27;20444;-86
2023/01/31 10:48:18;;;;;;;14.30;12.90;;;8.80;99.90;;;;;;5134485;27;20608;-84
2023/01/31 10:51:01;;;;;;;12.90;11.60;;;8.80;99.90;;;;;;5128815;27;20994;-86
2023/01/31 10:53:42;;;;;;;11.20;10.60;;;8.60;99.90;;;;;;5129649;27;20444;-87
2023/01/31 10:56:12;;;;;;;12.27;11.57;;;8.70;99.90;;;;;;5133880;28;20444;-86
2023/01/31 10:58:40;;;;;;;12.67;11.77;;;8.40;99.90;;;;;;5132601;27;20797;-85
2023/01/31 11:01:10;;;;;;;11.40;10.77;;;8.30;99.90;;;;;;5129912;27;20485;-86
2023/01/31 11:03:37;;;;;;;11.87;10.70;;;8.50;99.90;;;;;;5128481;27;20931;-86
2023/01/31 11:06:05;;;;;;;11.73;10.80;;;8.70;99.90;;;;;;5130464;27;20838;-86
2023/01/31 11:08:35;;;;;;;11.60;10.70;;;8.80;99.90;;;;;;5132908;27;20449;-84
2023/01/31 11:11:06;;;;;;;11.30;10.50;;;8.80;99.90;;;;;;5128410;27;20472;-85
2023/01/31 11:13:33;;;;;;;11.43;10.53;;;8.50;99.90;;;;;;5122627;28;20452;-84
2023/01/31 11:16:03;;;;;;;11.60;10.60;;;8.70;99.90;;;;;;5118464;28;20441;-85
2023/01/31 11:18:34;;;;;;;12.50;11.00;;;8.70;99.90;;;;;;5116423;28;20448;-85
2023/01/31 11:21:02;;;;;;;12.30;11.20;;;8.70;99.90;;;;;;5122532;27;20489;-86
2023/01/31 11:23:32;;;;;;;11.53;10.60;;;8.80;99.90;;;;;;5117324;28;20456;-86
2023/01/31 11:25:59;;;;;;;11.53;10.50;;;9.00;99.90;;;;;;5115034;28;20843;-86
2023/01/31 11:28:34;;;;;;;11.93;10.83;;;9.10;99.90;;;;;;5116587;28;20461;-86
2023/01/31 11:31:04;;;;;;;10.97;9.73;;;9.30;99.90;;;;;;5117463;28;20441;-85
2023/01/31 11:33:44;;;;;;;12.63;10.97;;;9.30;99.90;;;;;;5118196;28;20450;-85
2023/01/31 11:36:14;;;;;;;10.77;10.00;;;9.10;99.90;;;;;;5116312;28;20564;-85
2023/01/31 11:38:55;;;;;;;11.53;10.67;;;9.10;99.90;;;;;;5129914;28;20447;-81
2023/01/31 11:41:28;;;;;;;12.17;11.00;;;9.00;99.90;;;;;;5125083;28;20478;-85
2023/01/31 11:44:07;;;;;;;11.57;10.57;;;8.90;99.90;;;;;;5117404;28;20445;-84
2023/01/31 11:46:43;;;;;;;14.63;11.50;;;9.00;99.90;;;;;;5115731;28;20951;-84
2023/01/31 11:49:12;;;;;;;12.50;11.27;;;9.30;99.90;;;;;;5117515;28;20466;-84
2023/01/31 11:51:39;;;;;;;11.00;10.20;;;9.10;99.90;;;;;;5118188;28;20468;-84
2023/01/31 11:54:07;;;;;;;12.10;10.87;;;8.80;99.90;;;;;;5116884;28;20544;-85
2023/01/31 11:56:36;;;;;;;14.60;11.13;;;8.90;99.90;;;;;;5115651;27;20450;-84
2023/01/31 11:59:07;;;;;;;11.60;10.80;;;9.00;99.90;;;;;;5114235;28;20450;-84
2023/01/31 12:01:35;;;;;;;11.20;10.20;;;9.20;99.90;;;;;;5113324;28;20529;-84
2023/01/31 12:04:05;;;;;;;11.53;10.40;;;9.10;99.90;;;;;;5117826;28;20960;-85
2023/01/31 12:06:34;;;;;;;11.13;10.33;;;9.20;99.90;;;;;;5113747;28;20489;-84
2023/01/31 12:09:03;;;;;;;14.07;13.00;;;9.20;99.90;;;;;;5115202;28;20441;-84
2023/01/31 12:11:31;;;;;;;9.93;8.97;;;9.40;99.90;;;;;;5112325;27;20484;-82
2023/01/31 12:14:09;;;;;;;11.97;10.90;;;9.00;99.90;;;;;;5118072;27;20450;-84
2023/01/31 12:16:37;;;;;;;10.13;9.53;;;9.00;99.90;;;;;;5114838;28;20455;-85
2023/01/31 12:19:20;;;;;;;12.83;11.40;;;9.20;99.90;;;;;;5114065;28;20441;-84
2023/01/31 12:21:58;;;;;;;10.27;9.67;;;9.10;99.90;;;;;;5114954;28;20478;-84
2023/01/31 12:24:36;;;;;;;10.80;10.10;;;9.00;99.90;;;;;;5113289;28;20445;-84
2023/01/31 12:27:14;;;;;;;10.70;9.60;;;9.10;99.90;;;;;;5113822;27;20959;-83
2023/01/31 12:29:54;;;;;;;12.80;10.20;;;9.20;99.90;;;;;;5113804;28;21019;-83
2023/01/31 12:32:35;;;;;;;10.80;10.30;;;9.20;99.60;;;;;;5113774;28;20449;-84
2023/01/31 12:35:24;;;;;;;12.13;11.37;;;9.20;99.90;;;;;;5112536;28;20445;-82
2023/01/31 12:38:00;;;;;;;13.57;10.70;;;9.20;99.90;;;;;;5112321;28;20453;-84
2023/01/31 12:40:39;;;;;;;11.93;11.03;;;9.50;99.90;;;;;;5110642;28;20951;-84
2023/01/31 12:43:21;;;;;;;11.47;10.77;;;9.70;99.40;;;;;;5110623;28;20456;-83
2023/01/31 12:46:05;;;;;;;10.40;9.57;;;10.10;98.20;;;;;;5110645;28;20471;-83
2023/01/31 12:48:49;;;;;;;10.57;9.90;;;11.10;95.10;;;;;;5111751;28;20485;-81
2023/01/31 12:51:29;;;;;;;10.93;10.30;;;10.80;93.70;;;;;;5109901;28;20446;-82
2023/01/31 12:54:07;;;;;;;11.20;10.50;;;10.40;94.80;;;;;;5109998;27;20982;-81
2023/01/31 12:56:46;;;;;;;11.43;10.57;;;10.10;94.50;;;;;;5109997;28;20928;-82
2023/01/31 12:59:32;;;;;;;10.87;10.10;;;9.90;96.40;;;;;;5109959;28;20453;-82
2023/01/31 13:02:11;;;;;;;10.80;10.00;;;9.70;96.40;;;;;;5109816;28;20486;-81
2023/01/31 13:04:43;;;;;;;10.70;9.90;;;9.50;96.30;;;;;;5109981;28;20445;-83
2023/01/31 13:07:17;;;;;;;10.83;10.13;;;9.10;97.60;;;;;;5109724;27;20478;-83
2023/01/31 13:09:47;;;;;;;11.17;10.50;;;8.80;98.20;;;;;;5110345;28;20476;-83
2023/01/31 13:12:18;;;;;;;10.90;9.97;;;8.70;98.30;;;;;;5111444;28;20577;-82
2023/01/31 13:14:49;;;;;;;10.27;9.70;;;8.20;99.50;;;;;;5112090;28;20460;-82
2023/01/31 13:17:22;;;;;;;11.20;10.60;;;8.10;99.90;;;;;;5133815;28;20441;-83
2023/01/31 13:19:53;;;;;;;11.27;10.47;;;8.10;99.90;;;;;;5134121;28;20452;-84
2023/01/31 13:22:26;;;;;;;10.83;10.23;;;8.10;99.90;;;;;;5129556;28;20477;-83
2023/01/31 13:25:01;;;;;;;9.97;9.57;;;8.30;99.90;;;;;;5119103;28;20445;-83
2023/01/31 13:27:34;;;;;;;11.93;11.00;;;8.40;99.90;;;;;;5110764;28;20454;-83
2023/01/31 13:30:05;;;;;;;11.23;10.30;;;8.30;99.90;;;;;;5110031;28;20489;-82
2023/01/31 13:32:38;;;;;;;10.50;9.70;;;8.10;99.90;;;;;;5113380;28;20444;-83
2023/01/31 13:35:14;;;;;;;11.73;10.93;;;8.00;99.90;;;;;;5111005;28;20477;-82
2023/01/31 13:37:45;;;;;;;12.20;11.33;;;8.00;99.90;;;;;;5110040;28;20456;-81
2023/01/31 13:40:20;;;;;;;10.43;9.57;;;7.90;99.90;;;;;;5109496;28;20445;-82
2023/01/31 13:42:47;;;;;;;9.50;8.90;;;7.90;99.90;;;;;;5110063;28;20991;-82
2023/01/31 13:45:30;;;;;;;10.53;9.73;;;7.90;99.90;;;;;;5109752;28;20461;-81
2023/01/31 13:48:02;;;;;;;11.20;10.47;;;7.70;99.90;;;;;;5109680;28;20479;-82
2023/01/31 13:50:37;;;;;;;9.83;9.17;;;7.70;99.90;;;;;;5108737;28;20450;-81
2023/01/31 13:53:12;;;;;;;10.20;9.43;;;7.70;99.90;;;;;;5109408;28;20935;-82
2023/01/31 13:55:43;;;;;;;11.93;10.93;;;7.60;99.90;;;;;;5108558;28;20449;-81
2023/01/31 13:58:17;;;;;;;10.90;10.30;;;7.50;99.90;;;;;;5109224;28;20826;-82
2023/01/31 14:00:45;;;;;;;11.17;10.37;;;7.60;99.90;;;;;;5108904;28;20456;-82
2023/01/31 14:03:14;;;;;;;10.57;9.97;;;7.80;99.90;;;;;;5108579;28;20460;-81
2023/01/31 14:05:59;;;;;;;10.60;9.80;;;7.80;99.90;;;;;;5108618;28;20976;-82
2023/01/31 14:08:30;;;;;;;11.20;10.33;;;7.80;99.90;;;;;;5108964;28;20448;-83
2023/01/31 14:10:58;;;;;;;10.13;9.53;;;7.80;99.90;;;;;;5108543;28;20481;-82
2023/01/31 14:13:37;;;;;;;11.00;10.20;;;7.50;99.90;;;;;;5108815;28;20453;-82
2023/01/31 14:16:19;;;;;;;10.20;9.30;;;7.60;99.90;;;;;;5108667;28;20510;-81
2023/01/31 14:18:46;;;;;;;11.90;10.87;;;7.50;99.90;;;;;;5108919;28;20533;-82
2023/01/31 14:21:44;;;;;;;11.27;10.47;;;7.30;99.90;;;;;;5108506;28;20991;-83
2023/01/31 14:24:34;;;;;;;10.80;10.10;;;7.20;99.90;;;;;;5045794;28;20877;-83
2023/01/31 14:27:10;;;;;;;11.47;10.77;;;7.10;99.90;;;;;;5091395;28;20448;-81
2023/01/31 14:29:42;;;;;;;10.53;10.03;;;7.20;99.90;;;;;;5108921;28;20449;-83
2023/01/31 14:32:15;;;;;;;11.60;10.70;;;7.20;99.90;;;;;;5108585;28;20440;-82
2023/01/31 14:34:48;;;;;;;11.37;10.67;;;7.20;99.90;;;;;;5108899;28;20448;-82
2023/01/31 14:37:26;;;;;;;11.23;10.63;;;7.30;99.90;;;;;;5108956;28;20445;-82
2023/01/31 14:40:22;;;;;;;12.27;11.47;;;7.30;99.90;;;;;;5108762;28;20444;-81
2023/01/31 14:43:16;;;;;;;11.37;10.43;;;7.30;99.90;;;;;;5095369;28;20473;-82
2023/01/31 14:46:12;;;;;;;11.20;10.50;;;7.50;99.90;;;;;;5108834;28;20451;-82
2023/01/31 14:49:05;;;;;;;10.53;9.93;;;7.50;99.90;;;;;;5112444;28;20444;-82
2023/01/31 14:51:43;;;;;;;13.63;12.43;;;7.50;99.90;;;;;;5112621;27;20533;-81
2023/01/31 14:54:33;;;;;;;11.80;11.10;;;7.30;99.90;;;;;;5112277;28;20456;-81
2023/01/31 14:57:13;;;;;;;10.53;9.93;;;7.00;99.90;;;;;;5112048;28;20460;-81
2023/01/31 14:59:46;;;;;;;10.80;10.10;;;6.90;99.90;;;;;;5112154;28;20449;-82
2023/01/31 15:02:36;;;;;;;14.30;10.77;;;6.80;99.90;;;;;;5111924;28;20705;-83
2023/01/31 15:05:06;;;;;;;11.57;10.90;;;7.00;99.90;;;;;;5112346;28;20718;-83
2023/01/31 15:07:33;;;;;;;11.47;10.87;;;7.10;99.90;;;;;;5112661;28;20469;-82
2023/01/31 15:10:00;;;;;;;11.00;10.33;;;7.10;99.90;;;;;;5112178;28;20484;-82
2023/01/31 15:12:54;;;;;;;11.43;10.50;;;7.10;99.90;;;;;;5111470;27;21040;-82
2023/01/31 15:15:27;;;;;;;11.27;10.47;;;7.20;99.90;;;;;;5111286;28;20924;-82
2023/01/31 15:17:56;;;;;;;11.20;10.60;;;7.20;99.90;;;;;;5111484;28;20453;-83
2023/01/31 15:20:28;;;;;;;11.23;10.50;;;7.40;99.90;;;;;;5111714;28;20884;-83
2023/01/31 15:23:03;;;;;;;11.27;10.57;;;7.50;99.90;;;;;;5111508;28;20493;-84
2023/01/31 15:25:34;;;;;;;12.20;11.10;;;7.40;99.90;;;;;;5111532;28;20472;-83
2023/01/31 15:28:05;;;;;;;11.30;10.60;;;7.30;99.90;;;;;;5111825;28;20449;-84
2023/01/31 15:30:35;;;;;;;10.43;9.83;;;7.40;99.90;;;;;;5111618;28;20543;-83
2023/01/31 15:33:07;;;;;;;12.20;11.30;;;7.40;99.90;;;;;;5111382;28;20446;-83
2023/01/31 15:35:40;;;;;;;12.33;11.40;;;7.40;99.90;;;;;;5111599;27;20506;-83
2023/01/31 15:38:21;;;;;;;10.53;9.87;;;7.40;99.90;;;;;;5111731;28;20454;-82
2023/01/31 15:40:47;;;;;;;11.97;11.23;;;7.50;99.90;;;;;;5111332;28;20483;-81
2023/01/31 15:43:23;;;;;;;11.00;10.50;;;7.50;99.90;;;;;;5111210;28;20485;-81
2023/01/31 15:45:51;;;;;;;11.83;11.10;;;7.60;99.90;;;;;;5111646;28;20448;-82
2023/01/31 15:48:19;;;;;;;11.23;10.47;;;7.40;99.90;;;;;;5111367;28;20485;-81
2023/01/31 15:50:51;;;;;;;12.30;11.70;;;7.40;99.90;;;;;;5111384;28;20444;-82
2023/01/31 15:53:21;;;;;;;11.77;11.07;;;7.20;99.90;;;;;;5111318;28;21019;-83
2023/01/31 15:55:49;;;;;;;13.07;12.17;;;7.10;99.90;;;;;;5111326;28;20481;-83
2023/01/31 15:58:20;;;;;;;12.23;11.43;;;7.00;99.90;;;;;;5110853;28;20468;-83
2023/01/31 16:00:51;;;;;;;11.30;10.70;;;7.10;99.90;;;;;;5111260;28;20448;-83
2023/01/31 16:03:20;;;;;;;11.30;10.43;;;7.10;99.90;;;;;;5110885;28;20493;-83
2023/01/31 16:05:50;;;;;;;11.23;10.60;;;7.10;99.90;;;;;;5110338;28;20480;-82
2023/01/31 16:08:21;;;;;;;11.13;10.33;;;7.10;99.90;;;;;;5111017;28;20474;-83
2023/01/31 16:10:49;;;;;;;12.70;11.40;;;7.00;99.90;;;;;;5110791;28;20844;-83
2023/01/31 16:13:16;;;;;;;10.97;10.17;;;7.10;99.90;;;;;;5110641;27;20481;-83
2023/01/31 16:15:45;;;;;;;11.60;11.00;;;7.20;99.90;;;;;;5110277;28;20450;-81
2023/01/31 16:18:12;;;;;;;10.40;9.80;;;7.10;99.90;;;;;;5110717;27;20574;-82
2023/01/31 16:20:43;;;;;;;12.43;11.17;;;7.00;99.90;;;;;;5110690;28;20822;-83
2023/01/31 16:23:28;;;;;;;10.90;10.30;;;7.00;99.90;;;;;;5109976;28;20488;-83
2023/01/31 16:26:01;;;;;;;12.03;11.17;;;7.00;99.90;;;;;;5110090;28;20457;-84
2023/01/31 16:28:30;;;;;;;11.10;10.40;;;6.90;99.90;;;;;;5110213;28;20445;-83
2023/01/31 16:31:06;;;;;;;11.60;10.47;;;6.90;99.90;;;;;;5110041;28;21454;-82
2023/01/31 16:33:34;;;;;;;12.43;10.87;;;6.90;99.90;;;;;;5110326;28;20452;-83
2023/01/31 16:36:05;;;;;;;13.03;11.63;;;6.90;99.90;;;;;;5110212;28;20449;-81
2023/01/31 16:38:32;;;;;;;11.10;10.13;;;6.80;99.90;;;;;;5110329;28;20457;-83
2023/01/31 16:41:01;;;;;;;10.60;9.90;;;6.80;99.90;;;;;;5110037;28;20454;-82
2023/01/31 16:43:29;;;;;;;11.60;10.77;;;6.80;99.90;;;;;;5110394;28;20825;-81
2023/01/31 16:45:59;;;;;;;11.07;10.30;;;6.80;99.90;;;;;;5110366;28;20490;-82
2023/01/31 16:48:28;;;;;;;13.57;12.00;;;6.90;99.90;;;;;;5110202;28;20441;-81
2023/01/31 16:50:57;;;;;;;10.83;10.10;;;6.80;99.90;;;;;;5110545;28;20448;-81
2023/01/31 16:53:28;;;;;;;10.67;9.97;;;6.90;99.90;;;;;;5110455;28;20525;-81
2023/01/31 16:56:18;;;;;;;11.80;10.83;;;6.80;99.90;;;;;;5110585;28;20449;-82
2023/01/31 16:58:48;;;;;;;11.20;10.30;;;6.80;99.90;;;;;;5110482;28;20948;-81
2023/01/31 17:01:17;;;;;;;11.30;10.50;;;6.80;99.90;;;;;;5110141;28;20932;-81
2023/01/31 17:03:47;;;;;;;10.90;10.30;;;6.70;99.90;;;;;;5109858;28;20497;-82
2023/01/31 17:06:20;;;;;;;11.60;10.90;;;6.70;99.90;;;;;;5109144;28;21028;-81
2023/01/31 17:08:47;;;;;;;10.53;9.87;;;6.70;99.90;;;;;;5109901;28;20471;-81
2023/01/31 17:11:17;;;;;;;10.87;10.20;;;6.70;99.90;;;;;;5109091;28;20469;-81
2023/01/31 17:13:44;;;;;;;11.70;10.63;;;6.70;99.90;;;;;;5109140;28;20952;-81
2023/01/31 17:16:23;;;;;;;11.40;10.80;;;6.70;99.90;;;;;;5109071;28;21191;-82
2023/01/31 17:18:51;;;;;;;10.23;9.50;;;6.70;99.90;;;;;;5109841;28;20449;-80
2023/01/31 17:21:18;;;;;;;11.30;10.70;;;6.70;99.90;;;;;;5109724;28;20453;-82
2023/01/31 17:23:45;;;;;;;10.80;10.10;;;6.80;99.90;;;;;;5108939;28;20873;-82
2023/01/31 17:26:16;;;;;;;11.60;10.90;;;6.70;99.90;;;;;;5109230;28;20442;-83
2023/01/31 17:28:43;;;;;;;10.20;9.20;;;6.80;99.90;;;;;;5109022;27;20480;-82
2023/01/31 17:31:17;;;;;;;11.80;11.10;;;6.70;99.90;;;;;;5109456;28;20906;-82
2023/01/31 17:33:44;;;;;;;10.23;9.53;;;6.80;99.90;;;;;;5109057;28;20541;-82
2023/01/31 17:36:12;;;;;;;11.83;10.93;;;6.70;99.90;;;;;;5108865;28;20594;-82
2023/01/31 17:38:39;;;;;;;10.60;9.90;;;6.70;99.90;;;;;;5109051;28;20448;-82
2023/01/31 17:41:05;;;;;;;10.73;10.13;;;6.60;99.90;;;;;;5109486;28;20450;-82
2023/01/31 17:43:33;;;;;;;11.50;10.90;;;6.70;99.90;;;;;;5108978;28;20992;-83
2023/01/31 17:45:59;;;;;;;11.50;10.57;;;6.80;99.90;;;;;;5108983;28;20465;-82
2023/01/31 17:48:26;;;;;;;11.30;10.40;;;6.70;99.90;;;;;;5108706;28;20445;-81
2023/01/31 17:50:53;;;;;;;11.90;11.10;;;6.60;99.90;;;;;;5108904;28;20449;-81
2023/01/31 17:53:21;;;;;;;11.03;10.33;;;6.60;99.90;;;;;;5109117;28;20441;-82
2023/01/31 17:55:48;;;;;;;11.67;10.97;;;6.60;99.90;;;;;;5108826;28;20457;-82
2023/01/31 17:58:17;;;;;;;11.27;10.57;;;6.60;99.90;;;;;;5108454;28;20452;-81
